Latest Weather Observations for Dalby

IDQ60801

Issued at 9:35 am EST Friday 1 August 2014 (issued every 30 minutes, with the page automatically refreshed every 10 minutes)

About weather observations | Map of weather stations | Latest weather observations for QLD | Other Formats
Station Details ID: 041522 Name: DALBY AIRPORT Lat: -27.16 Lon: 151.26 Height: 343.9 m
Data from the previous 72 hours. | See also: Recent months at Dalby
Date/Time
EST
Temp
°C
App
Temp
°C
Dew
Point
Rel
Hum
%
Delta-T
°C
Wind Press
QNH
hPa
Press
MSL
hPa
Rain
since 9 am
mm
Dir
 
Spd
km/h
Gust
km/h
Spd
kts
Gust
kts
01/09:30am 19.7 14.1 11.5 59 4.6 NNW 32 43 17 23 1016.9 - 0.0
01/09:00am 18.3 12.5 11.6 65 3.7 NNW 33 43 18 23 1016.8 1016.8 0.0
01/08:30am 17.2 12.5 11.9 71 3.0 NNW 28 41 15 22 1016.8 - 0.0
01/08:00am 16.1 12.0 11.5 74 2.5 NNW 24 32 13 17 1016.8 1016.8 0.0
01/07:30am 15.1 11.2 10.9 76 2.3 N 22 28 12 15 1016.2 - 0.0
01/07:00am 14.1 10.4 10.3 78 2.0 N 20 28 11 15 1016.0 1016.0 0.0
01/06:30am 14.5 10.9 10.7 78 2.0 N 20 26 11 14 1015.9 - 0.0
01/06:00am 14.7 10.3 10.5 76 2.2 N 24 30 13 16 1015.9 1015.8 0.0
01/05:30am 14.8 10.5 10.6 76 2.3 N 24 32 13 17 1015.8 - 0.0
01/05:00am 14.8 10.8 10.4 75 2.3 N 22 28 12 15 1015.9 1015.8 0.0
01/04:30am 15.1 11.1 10.5 74 2.5 N 22 28 12 15 1015.8 - 0.0
01/04:00am 14.8 11.2 10.4 75 2.3 N 20 24 11 13 1015.8 1015.7 0.0
01/03:30am 14.3 10.8 10.3 77 2.1 N 19 24 10 13 1015.8 - 0.0
01/03:00am 14.0 10.3 10.0 77 2.1 N 20 24 11 13 1016.0 1016.0 0.0
01/02:30am 14.5 10.0 10.1 75 2.3 N 24 32 13 17 1016.1 - 0.0
01/02:00am 14.6 9.7 10.0 74 2.4 N 26 33 14 18 1016.0 1016.0 0.0
01/01:30am 14.9 10.3 9.7 71 2.7 N 24 32 13 17 1016.0 - 0.0
01/01:00am 15.4 10.9 10.0 70 2.9 N 24 30 13 16 1016.2 1016.2 0.0
01/12:30am 15.3 10.6 9.4 68 3.1 N 24 30 13 16 1016.5 - 0.0
01/12:00am 15.1 11.0 8.8 66 3.3 N 20 26 11 14 1016.5 1016.5 0.0
 
Date/Time
EST
Temp
°C
App
Temp
°C
Dew
Point
Rel
Hum
%
Delta-T
°C
Wind Press
QNH
hPa
Press
MSL
hPa
Rain
since 9 am
mm
Dir
 
Spd
km/h
Gust
km/h
Spd
kts
Gust
kts
31/11:30pm 14.6 10.5 7.9 64 3.4 N 19 24 10 13 1016.8 - 0.0
31/11:00pm 12.9 7.8 3.0 51 4.5 N 19 20 10 11 1017.1 1017.1 0.0
31/10:30pm 9.5 5.3 1.4 57 3.4 N 13 17 7 9 1017.2 - 0.0
31/10:00pm 11.0 7.1 1.0 50 4.2 NNW 11 13 6 7 1017.2 1017.2 0.0
31/09:30pm 12.4 8.6 1.7 48 4.7 NW 11 13 6 7 1017.2 - 0.0
31/09:00pm 12.5 8.9 0.9 45 5.0 NW 9 17 5 9 1017.2 1017.2 0.0
31/08:30pm 14.0 10.6 1.6 43 5.5 NW 9 17 5 9 1016.9 - 0.0
31/08:00pm 12.0 7.0 1.3 48 4.6 NNE 17 19 9 10 1016.8 1016.8 0.0
31/07:30pm 12.4 7.4 1.4 47 4.8 N 17 20 9 11 1016.8 - 0.0
31/07:00pm 12.1 7.3 0.2 44 5.0 N 15 17 8 9 1016.4 1016.4 0.0
31/06:30pm 14.0 10.2 -0.4 37 6.1 N 9 11 5 6 1016.1 - 0.0
31/06:00pm 17.2 12.8 0.4 32 7.4 NNW 13 15 7 8 1015.8 1015.7 0.0
31/05:30pm 18.9 14.6 1.0 30 8.1 NNW 13 15 7 8 1015.6 - 0.0
31/05:00pm 21.9 16.9 1.5 26 9.6 NNW 17 20 9 11 1015.7 1015.6 0.0
31/04:30pm 23.1 17.2 2.0 25 10.1 NNW 22 30 12 16 1015.7 - 0.0
31/04:00pm 23.6 18.3 1.9 24 10.4 NNW 19 32 10 17 1015.8 1015.7 0.0
31/03:30pm 23.6 18.1 1.9 24 10.4 N 20 26 11 14 1015.8 - 0.0
31/03:00pm 23.5 18.2 1.8 24 10.4 NNW 19 28 10 15 1016.0 1016.0 0.0
31/02:30pm 23.5 18.7 2.4 25 10.2 N 17 28 9 15 1016.3 - 0.0
31/02:00pm 23.6 18.0 1.3 23 10.6 NW 20 28 11 15 1016.7 1016.7 0.0
31/01:30pm 23.4 18.0 2.3 25 10.2 NNW 20 39 11 21 1017.3 - 0.0
31/01:00pm 23.7 18.8 2.0 24 10.4 NW 17 24 9 13 1017.9 1017.8 0.0
31/12:30pm 22.9 17.1 0.1 22 10.5 NW 20 33 11 18 1018.7 - 0.0
31/12:00pm 22.8 17.3 3.9 29 9.3 NW 22 30 12 16 1019.4 1019.4 0.0
31/11:30am 21.7 16.5 3.4 30 8.9 NW 20 28 11 15 1020.1 - 0.0
31/11:00am 20.9 15.4 4.0 33 8.3 NW 22 30 12 16 1020.7 1020.7 0.0
31/10:30am 20.7 15.0 5.1 36 7.8 NW 24 33 13 18 1021.3 - 0.0
31/10:00am 19.6 13.7 5.6 40 7.0 NNW 26 35 14 19 1021.8 1021.8 0.0
31/09:30am 18.2 12.9 5.1 42 6.4 NNW 22 30 12 16 1022.0 - 0.0
31/09:00am 16.6 11.7 4.0 43 6.0 N 19 26 10 14 1022.1 1022.1 0.0
31/08:30am 14.9 11.7 2.8 44 5.5 N 9 13 5 7 1022.2 - 0.0
31/08:00am 10.0 6.7 -1.1 46 4.4 NE 6 9 3 5 1022.0 1022.0 0.0
31/07:30am 6.5 3.1 -0.9 59 2.9 NE 7 9 4 5 1021.7 - 0.0
31/07:00am 2.6 -1.1 -2.5 69 1.8 ENE 7 11 4 6 1021.6 1021.6 0.0
31/06:30am 1.8 -1.9 -3.1 70 1.7 ENE 7 7 4 4 1021.1 - 0.0
31/06:00am 1.8 -2.6 -2.3 74 1.4 ESE 11 13 6 7 1020.6 1020.6 0.0
31/05:30am 1.3 -3.6 -3.0 73 1.6 E 13 13 7 7 1020.4 - 0.0
31/05:00am 1.4 -2.7 -2.9 73 1.6 SE 9 13 5 7 1020.2 1020.2 0.0
31/04:30am 3.4 1.1 -2.5 65 2.1 CALM 0 6 0 3 1020.1 - 0.0
31/04:00am 4.6 0.2 -2.3 61 2.5 SSE 11 13 6 7 1020.3 1020.3 0.0
31/03:30am 3.8 0.2 -2.4 64 2.2 S 7 7 4 4 1020.2 - 0.0
31/03:00am 4.1 0.4 -3.0 60 2.5 NNW 7 13 4 7 1020.4 1020.4 0.0
31/02:30am 5.0 0.6 -2.1 60 2.6 ENE 11 15 6 8 1020.3 - 0.0
31/02:00am 4.3 -0.8 -2.3 62 2.4 ENE 15 17 8 9 1020.3 1020.3 0.0
31/01:30am 4.2 0.2 -2.6 61 2.5 E 9 11 5 6 1020.4 - 0.0
31/01:00am 5.4 0.6 -2.2 58 2.8 ENE 13 19 7 10 1020.7 1020.7 0.0
31/12:30am 5.2 0.4 -2.4 58 2.8 ENE 13 15 7 8 1020.8 - 0.0
31/12:00am 4.8 -0.4 -2.7 58 2.7 ENE 15 17 8 9 1021.1 1021.1 0.0
 
Date/Time
EST
Temp
°C
App
Temp
°C
Dew
Point
Rel
Hum
%
Delta-T
°C
Wind Press
QNH
hPa
Press
MSL
hPa
Rain
since 9 am
mm
Dir
 
Spd
km/h
Gust
km/h
Spd
kts
Gust
kts
30/11:30pm 5.4 0.2 -2.9 55 3.0 ENE 15 17 8 9 1021.3 - 0.0
30/11:00pm 5.9 2.2 -2.9 53 3.2 E 7 9 4 5 1021.3 1021.3 0.0
30/10:30pm 5.5 1.5 -2.1 58 2.8 E 9 11 5 6 1021.4 - 0.0
30/10:00pm 6.0 1.6 -2.6 54 3.2 E 11 13 6 7 1021.5 1021.5 0.0
30/09:30pm 5.7 1.1 -3.9 50 3.4 ENE 11 13 6 7 1021.4 - 0.0
30/09:00pm 6.8 2.2 -4.0 46 3.9 E 11 15 6 8 1021.5 1021.5 0.0
30/08:43pm 9.0 4.1 -6.8 32 5.5 SSE 11 13 6 7 1021.4 - 0.0
30/08:30pm 14.5 9.5 -4.7 26 7.4 S 13 15 7 8 1021.3 - 0.0
30/08:00pm 14.6 9.6 -4.7 26 7.4 S 13 17 7 9 1021.2 1021.2 0.0
30/07:30pm 15.0 10.4 -4.3 26 7.6 SSW 11 13 6 7 1021.1 - 0.0
30/07:00pm 15.8 10.8 -4.7 24 8.0 SSW 13 15 7 8 1020.8 1020.8 0.0
30/06:30pm 16.5 11.5 -4.7 23 8.4 SSW 13 15 7 8 1020.5 - 0.0
30/06:00pm 17.7 13.1 -4.3 22 8.8 SW 11 13 6 7 1020.3 1020.3 0.0
30/05:30pm 18.7 13.7 -4.7 20 9.5 SW 13 15 7 8 1019.9 - 0.0
30/05:00pm 21.6 16.3 -3.7 18 10.7 WSW 15 20 8 11 1019.8 1019.8 0.0
30/04:30pm 22.7 17.0 -3.6 17 11.3 WSW 17 20 9 11 1019.5 - 0.0
30/04:00pm 23.2 18.7 -3.2 17 11.4 WSW 11 17 6 9 1019.4 1019.4 0.0
30/03:30pm 23.2 16.9 -4.0 16 11.6 W 20 30 11 16 1019.3 - 0.0
30/03:00pm 23.0 17.7 -3.3 17 11.4 SW 15 26 8 14 1019.3 1019.3 0.0
30/02:30pm 22.4 17.5 -3.1 18 11.0 WSW 13 20 7 11 1019.5 - 0.0
30/02:00pm 22.5 17.4 -2.2 19 10.8 W 15 20 8 11 1019.9 1019.9 0.0
30/01:30pm 21.6 16.1 -2.3 20 10.4 W 17 24 9 13 1020.4 - 0.0
30/01:00pm 21.8 17.0 -2.8 19 10.6 SSW 13 20 7 11 1020.8 1020.8 0.0
30/12:30pm 21.6 15.6 -3.0 19 10.6 SW 19 22 10 12 1021.6 - 0.0
30/12:00pm 21.3 16.1 -2.5 20 10.3 S 15 24 8 13 1022.1 1022.1 0.0
30/11:30am 20.2 16.1 -2.8 21 9.8 S 9 20 5 11 1022.7 - 0.0
30/11:00am 19.8 15.7 -3.1 21 9.6 SSW 9 15 5 8 1023.1 1023.1 0.0
30/10:30am 19.4 16.3 -0.1 27 8.7 SSE 6 11 3 6 1023.5 - 0.0
30/10:00am 17.8 14.7 0.0 30 7.8 SE 6 9 3 5 1023.9 1024.0 0.0
30/09:30am 15.5 12.5 0.9 37 6.4 SE 6 9 3 5 1024.1 - 0.0
30/09:00am 13.1 10.1 0.8 43 5.3 SE 6 9 3 5 1024.2 1024.2 0.0
30/08:30am 10.8 8.9 0.5 49 4.3 CALM 0 0 0 0 1023.9 - 0.0
30/08:00am 7.5 4.3 -0.2 58 3.0 ESE 6 7 3 4 1023.9 1024.0 0.0
30/07:30am 5.3 3.3 -0.1 68 2.1 CALM 0 7 0 4 1023.6 - 0.0
30/07:00am 2.4 -0.9 -1.4 76 1.4 SW 6 7 3 4 1023.4 1023.5 0.0
30/06:30am 1.6 -1.1 -2.5 74 1.4 WNW 2 7 1 4 1023.2 - 0.0
30/06:00am 2.2 -1.4 -2.3 72 1.6 NNE 7 11 4 6 1023.0 1023.0 0.0
30/05:30am 2.0 -2.3 -1.8 76 1.4 ENE 11 11 6 6 1022.6 - 0.0
30/05:00am 1.7 -2.7 -2.4 74 1.4 E 11 13 6 7 1022.4 1022.4 0.0
30/04:30am 2.9 -0.7 -2.2 69 1.8 ESE 7 9 4 5 1022.2 - 0.0
30/04:00am 3.1 -0.3 -1.8 70 1.8 SE 6 7 3 4 1022.1 1022.1 0.0
30/03:30am 2.8 -0.8 -1.9 71 1.7 SE 7 9 4 5 1022.0 - 0.0
30/03:00am 2.9 -0.6 -1.6 72 1.6 E 7 9 4 5 1022.2 1022.2 0.0
30/02:30am 2.4 -2.1 -2.9 68 1.9 E 11 13 6 7 1022.0 - 0.0
30/02:00am 2.5 -1.5 -2.2 71 1.7 E 9 11 5 6 1022.1 1022.1 0.0
30/01:30am 2.7 -2.1 -2.2 70 1.8 E 13 13 7 7 1022.3 - 0.0
30/01:00am 3.4 -0.9 -1.7 69 1.9 ESE 11 13 6 7 1022.5 1022.5 0.0
30/12:30am 3.8 -0.6 -2.2 65 2.2 ESE 11 13 6 7 1022.6 - 0.0
30/12:00am 4.4 0.4 -2.0 63 2.3 ESE 9 11 5 6 1022.5 1022.5 0.0
 
Date/Time
EST
Temp
°C
App
Temp
°C
Dew
Point
Rel
Hum
%
Delta-T
°C
Wind Press
QNH
hPa
Press
MSL
hPa
Rain
since 9 am
mm
Dir
 
Spd
km/h
Gust
km/h
Spd
kts
Gust
kts
29/11:30pm 3.4 -0.7 -3.0 63 2.3 E 9 11 5 6 1022.3 - 0.0
29/11:00pm 4.2 -0.3 -2.9 60 2.5 ESE 11 11 6 6 1022.3 1022.3 0.0
29/10:30pm 4.9 1.3 -2.2 60 2.6 E 7 9 4 5 1022.3 - 0.0
29/10:00pm 4.9 0.8 -2.7 58 2.7 E 9 11 5 6 1022.2 1022.2 0.0
29/09:30pm 6.5 2.4 -2.9 51 3.5 E 9 11 5 6 1021.9 - 0.0
29/09:00pm 6.5 2.5 -2.1 54 3.2 E 9 11 5 6 1021.5 1021.5 0.0
29/08:30pm 7.6 3.4 -0.6 56 3.2 E 11 13 6 7 1021.3 - 0.0
29/08:00pm 7.6 4.0 -2.4 49 3.8 E 7 9 4 5 1021.1 1021.1 0.0
29/07:30pm 8.8 5.2 -1.9 47 4.1 E 7 11 4 6 1021.0 - 0.0
29/07:00pm 11.0 7.6 -2.4 39 5.2 S 6 7 3 4 1020.7 1020.7 0.0
29/06:53pm 11.8 8.1 -3.1 35 5.8 S 7 9 4 5 1020.8 - 0.0
29/06:30pm 16.8 13.3 -1.3 29 7.7 S 7 9 4 5 1020.6 - 0.0
29/06:00pm 16.8 13.2 -1.8 28 7.8 SSW 7 9 4 5 1020.4 1020.4 0.0
29/05:30pm 18.0 13.6 -2.8 24 8.7 SW 11 13 6 7 1020.2 - 0.0
29/05:00pm 20.9 16.2 -1.6 22 9.9 WSW 13 17 7 9 1020.0 1020.0 0.0
29/04:30pm 22.0 16.9 -2.0 20 10.6 WSW 15 20 8 11 1019.8 - 0.0
29/04:00pm 22.4 17.6 -2.3 19 10.8 SSW 13 20 7 11 1019.8 1019.8 0.0
29/03:30pm 22.7 16.7 -1.4 20 10.8 WSW 20 26 11 14 1019.8 - 0.0
29/03:00pm 22.7 16.6 -2.1 19 10.9 WSW 20 32 11 17 1019.8 1019.8 0.0
29/02:30pm 22.7 16.2 -2.1 19 11.0 WSW 22 33 12 18 1020.1 - 0.0
29/02:00pm 22.6 17.2 -1.5 20 10.7 WSW 17 28 9 15 1020.3 1020.3 0.0
29/01:30pm 21.6 15.8 0.2 24 9.8 WSW 20 30 11 16 1020.6 - 0.0
29/01:00pm 21.6 16.7 -0.4 23 9.9 W 15 24 8 13 1021.1 1021.1 0.0
29/12:30pm 20.4 15.9 -0.3 25 9.3 W 13 20 7 11 1021.8 - 0.0
29/12:00pm 20.3 15.9 0.2 26 9.1 WSW 13 22 7 12 1022.3 1022.3 0.0
29/11:30am 19.8 15.7 -0.2 26 8.9 W 11 17 6 9 1022.8 - 0.0
29/11:00am 18.3 14.0 0.9 31 7.8 W 13 19 7 10 1023.3 1023.3 0.0
29/10:30am 17.4 13.5 1.0 33 7.4 WNW 11 17 6 9 1023.4 - 0.0
29/10:00am 15.4 11.8 0.8 37 6.4 WNW 9 17 5 9 1023.7 1023.8 0.0

Other Formats:

Comma delimited format used in spreadsheet applications
http://www.bom.gov.au/fwo/IDQ60801/IDQ60801.94542.axf

JavaScript Object Notation format (JSON) in row-major order
http://www.bom.gov.au/fwo/IDQ60801/IDQ60801.94542.json